Sugartown, Louisiana
Current Conditions -  °F | °C
As of 5:54 AM on Thursday 27 Nov 2014 (Local Time) from KBKB Reporting Station
Clear Clear  
Wind Chill: 45°   Ceiling: Unl
Heat Index: 45°   Visibility: 10mi
Dew Point: 33°   Wind: 3mph
Humidity: 63%   Direction: NA
Pressure: 30.4"   Gusts: NA
Location:  30.84°N, 93.02°W
Report Text: KBKB 271154Z AUTO VRB03KT 10SM CLR 07/01 A3040 RMK AO2 SLP324 T00720006 10111 20067 51024 $
Loading
Personal Weather Stations






























Interactive Weather Map New forecast layout! Learn more

10-Day Weather Forecast

Advertisements
Track Severe Weather on mobile